Alice, Texas
Current Conditions -  °F | °C
As of 11:53 AM on Friday 24 Oct 2014 (Local Time) from KALI Reporting Station
Clear Clear  
Wind Chill: 82°   Ceiling: Unl
Heat Index: 83°   Visibility: 10mi
Dew Point: 62°   Wind: 5mph
Humidity: 51%   Direction: NA
Pressure: 30.16"   Gusts: NA
Location:  27.75°N, 98.06°W
Report Text: KALI 241653Z AUTO VRB04KT 10SM CLR 28/17 A3016 RMK AO2 SLP210 T02780167
Loading
Personal Weather Stations






























Interactive Weather Map
Tropical Storm Tracking
New forecast layout! Learn more

10-Day Weather Forecast

Advertisements
Track Severe Weather on mobile